sensor_id;sensor_type;location;lat;lon;timestamp;temperature;humidity
21282;DHT22;10800;53.096;18.328;2024-02-15T00:01:51;6.40;99.90
21282;DHT22;10800;53.096;18.328;2024-02-15T00:06:57;6.40;99.90
21282;DHT22;10800;53.096;18.328;2024-02-15T00:12:03;6.30;99.90
21282;DHT22;10800;53.096;18.328;2024-02-15T00:17:09;6.30;99.90
21282;DHT22;10800;53.096;18.328;2024-02-15T00:22:17;6.30;99.90
21282;DHT22;10800;53.096;18.328;2024-02-15T00:27:24;6.30;99.90
21282;DHT22;10800;53.096;18.328;2024-02-15T00:32:31;6.30;99.90
21282;DHT22;10800;53.096;18.328;2024-02-15T00:37:37;6.30;99.90
21282;DHT22;10800;53.096;18.328;2024-02-15T00:42:43;6.30;99.90
21282;DHT22;10800;53.096;18.328;2024-02-15T00:47:49;6.30;99.90
21282;DHT22;10800;53.096;18.328;2024-02-15T00:52:55;6.30;99.90
21282;DHT22;10800;53.096;18.328;2024-02-15T00:58:06;6.30;99.90
21282;DHT22;10800;53.096;18.328;2024-02-15T01:03:13;6.30;99.90
21282;DHT22;10800;53.096;18.328;2024-02-15T01:08:23;6.40;99.90
21282;DHT22;10800;53.096;18.328;2024-02-15T01:13:29;6.40;99.90
21282;DHT22;10800;53.096;18.328;2024-02-15T01:18:34;6.40;99.90
21282;DHT22;10800;53.096;18.328;2024-02-15T01:23:40;6.40;99.90
21282;DHT22;10800;53.096;18.328;2024-02-15T01:28:47;6.40;99.90
21282;DHT22;10800;53.096;18.328;2024-02-15T01:33:54;6.40;99.90
21282;DHT22;10800;53.096;18.328;2024-02-15T01:39:01;6.40;99.90
21282;DHT22;10800;53.096;18.328;2024-02-15T01:44:08;6.40;99.90
21282;DHT22;10800;53.096;18.328;2024-02-15T01:49:19;6.50;99.90
21282;DHT22;10800;53.096;18.328;2024-02-15T01:54:29;6.50;99.90
21282;DHT22;10800;53.096;18.328;2024-02-15T01:59:47;6.50;99.90
21282;DHT22;10800;53.096;18.328;2024-02-15T02:04:56;6.50;99.90
21282;DHT22;10800;53.096;18.328;2024-02-15T02:10:05;6.50;99.90
21282;DHT22;10800;53.096;18.328;2024-02-15T02:15:13;6.60;99.90
21282;DHT22;10800;53.096;18.328;2024-02-15T02:20:30;6.60;99.90
21282;DHT22;10800;53.096;18.328;2024-02-15T02:25:37;6.60;99.90
21282;DHT22;10800;53.096;18.328;2024-02-15T02:30:48;6.60;99.90
21282;DHT22;10800;53.096;18.328;2024-02-15T02:36:00;6.60;99.90
21282;DHT22;10800;53.096;18.328;2024-02-15T02:41:08;6.70;99.90
21282;DHT22;10800;53.096;18.328;2024-02-15T02:46:16;6.70;99.90
21282;DHT22;10800;53.096;18.328;2024-02-15T02:51:25;6.70;99.90
21282;DHT22;10800;53.096;18.328;2024-02-15T02:56:34;6.70;99.90
21282;DHT22;10800;53.096;18.328;2024-02-15T03:01:48;6.70;99.90
21282;DHT22;10800;53.096;18.328;2024-02-15T03:07:00;6.80;99.90
21282;DHT22;10800;53.096;18.328;2024-02-15T03:12:10;6.80;99.90
21282;DHT22;10800;53.096;18.328;2024-02-15T03:17:23;6.80;99.90
21282;DHT22;10800;53.096;18.328;2024-02-15T03:22:32;6.80;99.90
21282;DHT22;10800;53.096;18.328;2024-02-15T03:27:40;6.80;99.90
21282;DHT22;10800;53.096;18.328;2024-02-15T03:32:57;6.90;99.90
21282;DHT22;10800;53.096;18.328;2024-02-15T03:38:22;6.90;99.90
21282;DHT22;10800;53.096;18.328;2024-02-15T03:43:32;6.90;99.90
21282;DHT22;10800;53.096;18.328;2024-02-15T03:48:43;6.90;99.90
21282;DHT22;10800;53.096;18.328;2024-02-15T03:54:00;6.90;99.90
21282;DHT22;10800;53.096;18.328;2024-02-15T03:59:13;6.90;99.90
21282;DHT22;10800;53.096;18.328;2024-02-15T04:04:23;6.90;99.90
21282;DHT22;10800;53.096;18.328;2024-02-15T04:09:35;6.90;99.90
21282;DHT22;10800;53.096;18.328;2024-02-15T04:14:44;6.90;99.90
21282;DHT22;10800;53.096;18.328;2024-02-15T04:19:55;6.90;99.90
21282;DHT22;10800;53.096;18.328;2024-02-15T04:25:08;7.00;99.90
21282;DHT22;10800;53.096;18.328;2024-02-15T04:30:25;7.00;99.90
21282;DHT22;10800;53.096;18.328;2024-02-15T04:35:31;7.00;99.90
21282;DHT22;10800;53.096;18.328;2024-02-15T04:40:38;7.00;99.90
21282;DHT22;10800;53.096;18.328;2024-02-15T04:45:47;7.10;99.90
21282;DHT22;10800;53.096;18.328;2024-02-15T04:50:53;7.10;99.90
21282;DHT22;10800;53.096;18.328;2024-02-15T04:55:59;7.10;99.90
21282;DHT22;10800;53.096;18.328;2024-02-15T05:01:08;7.20;99.90
21282;DHT22;10800;53.096;18.328;2024-02-15T05:06:16;7.20;99.90
21282;DHT22;10800;53.096;18.328;2024-02-15T05:11:23;7.20;99.90
21282;DHT22;10800;53.096;18.328;2024-02-15T05:16:35;7.20;99.90
21282;DHT22;10800;53.096;18.328;2024-02-15T05:21:45;7.20;99.90
21282;DHT22;10800;53.096;18.328;2024-02-15T05:26:53;7.20;99.90
21282;DHT22;10800;53.096;18.328;2024-02-15T05:32:01;7.20;99.90
21282;DHT22;10800;53.096;18.328;2024-02-15T05:37:12;7.20;99.90
21282;DHT22;10800;53.096;18.328;2024-02-15T05:42:19;7.20;99.90
21282;DHT22;10800;53.096;18.328;2024-02-15T05:47:25;7.20;99.90
21282;DHT22;10800;53.096;18.328;2024-02-15T05:52:31;7.20;99.90
21282;DHT22;10800;53.096;18.328;2024-02-15T05:57:58;7.20;99.90
21282;DHT22;10800;53.096;18.328;2024-02-15T06:03:09;7.20;99.90
21282;DHT22;10800;53.096;18.328;2024-02-15T06:08:19;7.20;99.90
21282;DHT22;10800;53.096;18.328;2024-02-15T06:13:44;7.20;99.90
21282;DHT22;10800;53.096;18.328;2024-02-15T06:18:51;7.30;99.90
21282;DHT22;10800;53.096;18.328;2024-02-15T06:24:15;7.30;99.90
21282;DHT22;10800;53.096;18.328;2024-02-15T06:29:25;7.30;99.90
21282;DHT22;10800;53.096;18.328;2024-02-15T06:34:51;7.30;99.90
21282;DHT22;10800;53.096;18.328;2024-02-15T06:40:26;7.30;99.90
21282;DHT22;10800;53.096;18.328;2024-02-15T06:45:39;7.40;99.90
21282;DHT22;10800;53.096;18.328;2024-02-15T06:50:50;7.40;99.90
21282;DHT22;10800;53.096;18.328;2024-02-15T06:56:00;7.40;99.90
21282;DHT22;10800;53.096;18.328;2024-02-15T07:01:14;7.40;99.90
21282;DHT22;10800;53.096;18.328;2024-02-15T07:06:39;7.40;99.90
21282;DHT22;10800;53.096;18.328;2024-02-15T07:11:44;7.50;99.90
21282;DHT22;10800;53.096;18.328;2024-02-15T07:16:56;7.50;99.90
21282;DHT22;10800;53.096;18.328;2024-02-15T07:22:05;7.50;99.90
21282;DHT22;10800;53.096;18.328;2024-02-15T07:27:11;7.50;99.90
21282;DHT22;10800;53.096;18.328;2024-02-15T07:32:20;7.50;99.90
21282;DHT22;10800;53.096;18.328;2024-02-15T07:37:25;7.50;99.90
21282;DHT22;10800;53.096;18.328;2024-02-15T07:42:38;7.50;99.90
21282;DHT22;10800;53.096;18.328;2024-02-15T07:47:44;7.50;99.90
21282;DHT22;10800;53.096;18.328;2024-02-15T07:52:50;7.60;99.90
21282;DHT22;10800;53.096;18.328;2024-02-15T07:57:56;7.60;99.90
21282;DHT22;10800;53.096;18.328;2024-02-15T08:03:04;7.60;99.90
21282;DHT22;10800;53.096;18.328;2024-02-15T08:08:19;7.70;99.90
21282;DHT22;10800;53.096;18.328;2024-02-15T08:13:29;7.70;99.90
21282;DHT22;10800;53.096;18.328;2024-02-15T08:18:38;7.80;99.90
21282;DHT22;10800;53.096;18.328;2024-02-15T08:23:47;7.80;99.90
21282;DHT22;10800;53.096;18.328;2024-02-15T08:28:52;7.90;99.90
21282;DHT22;10800;53.096;18.328;2024-02-15T08:34:01;8.00;99.90
21282;DHT22;10800;53.096;18.328;2024-02-15T08:39:10;8.00;99.90
21282;DHT22;10800;53.096;18.328;2024-02-15T08:44:22;8.00;99.90
21282;DHT22;10800;53.096;18.328;2024-02-15T08:49:29;8.10;99.90
21282;DHT22;10800;53.096;18.328;2024-02-15T08:54:36;8.20;99.90
21282;DHT22;10800;53.096;18.328;2024-02-15T08:59:44;8.20;99.90
21282;DHT22;10800;53.096;18.328;2024-02-15T09:04:56;8.30;99.90
21282;DHT22;10800;53.096;18.328;2024-02-15T09:10:20;8.30;99.90
21282;DHT22;10800;53.096;18.328;2024-02-15T09:15:28;8.40;99.90
21282;DHT22;10800;53.096;18.328;2024-02-15T09:20:38;8.40;99.90
21282;DHT22;10800;53.096;18.328;2024-02-15T09:25:52;8.50;99.90
21282;DHT22;10800;53.096;18.328;2024-02-15T09:31:06;8.50;99.90
21282;DHT22;10800;53.096;18.328;2024-02-15T09:36:24;8.60;99.90
21282;DHT22;10800;53.096;18.328;2024-02-15T09:41:37;8.70;99.90
21282;DHT22;10800;53.096;18.328;2024-02-15T09:46:47;8.70;99.90
21282;DHT22;10800;53.096;18.328;2024-02-15T09:52:11;8.70;99.90
21282;DHT22;10800;53.096;18.328;2024-02-15T09:57:24;8.70;99.90
21282;DHT22;10800;53.096;18.328;2024-02-15T10:02:33;8.80;99.90
21282;DHT22;10800;53.096;18.328;2024-02-15T10:07:50;8.90;99.90
21282;DHT22;10800;53.096;18.328;2024-02-15T10:12:58;9.00;99.90
21282;DHT22;10800;53.096;18.328;2024-02-15T10:18:08;9.10;99.90
21282;DHT22;10800;53.096;18.328;2024-02-15T10:23:38;9.20;99.90
21282;DHT22;10800;53.096;18.328;2024-02-15T10:28:50;9.20;99.90
21282;DHT22;10800;53.096;18.328;2024-02-15T10:33:59;9.30;99.90
21282;DHT22;10800;53.096;18.328;2024-02-15T10:39:14;9.30;99.90
21282;DHT22;10800;53.096;18.328;2024-02-15T10:44:30;9.30;99.90
21282;DHT22;10800;53.096;18.328;2024-02-15T10:50:20;9.30;99.90
21282;DHT22;10800;53.096;18.328;2024-02-15T11:00:56;9.40;99.90
21282;DHT22;10800;53.096;18.328;2024-02-15T11:06:04;9.50;99.90
21282;DHT22;10800;53.096;18.328;2024-02-15T11:11:12;9.60;99.90
21282;DHT22;10800;53.096;18.328;2024-02-15T11:16:42;9.90;99.90
21282;DHT22;10800;53.096;18.328;2024-02-15T11:21:56;9.90;99.90
21282;DHT22;10800;53.096;18.328;2024-02-15T11:27:04;10.00;99.90
21282;DHT22;10800;53.096;18.328;2024-02-15T11:32:10;10.10;99.90
21282;DHT22;10800;53.096;18.328;2024-02-15T11:37:51;10.00;99.90
21282;DHT22;10800;53.096;18.328;2024-02-15T11:43:36;10.10;99.90
21282;DHT22;10800;53.096;18.328;2024-02-15T11:48:19;10.20;99.90
21282;DHT22;10800;53.096;18.328;2024-02-15T11:53:30;10.20;99.90
21282;DHT22;10800;53.096;18.328;2024-02-15T11:58:36;10.20;99.90
21282;DHT22;10800;53.096;18.328;2024-02-15T12:04:13;10.30;99.90
21282;DHT22;10800;53.096;18.328;2024-02-15T12:09:50;10.20;99.90
21282;DHT22;10800;53.096;18.328;2024-02-15T12:15:18;10.20;99.90
21282;DHT22;10800;53.096;18.328;2024-02-15T12:20:44;10.20;99.90
21282;DHT22;10800;53.096;18.328;2024-02-15T12:25:53;10.30;99.90
21282;DHT22;10800;53.096;18.328;2024-02-15T12:30:59;10.40;99.90
21282;DHT22;10800;53.096;18.328;2024-02-15T12:36:08;10.30;99.90
21282;DHT22;10800;53.096;18.328;2024-02-15T12:41:20;10.30;99.90
21282;DHT22;10800;53.096;18.328;2024-02-15T12:46:29;10.40;99.90
21282;DHT22;10800;53.096;18.328;2024-02-15T12:51:37;10.40;99.90
21282;DHT22;10800;53.096;18.328;2024-02-15T12:57:10;10.40;99.90
21282;DHT22;10800;53.096;18.328;2024-02-15T13:02:20;10.50;99.90
21282;DHT22;10800;53.096;18.328;2024-02-15T13:07:26;10.50;99.90
21282;DHT22;10800;53.096;18.328;2024-02-15T13:12:36;10.60;99.90
21282;DHT22;10800;53.096;18.328;2024-02-15T13:17:45;10.60;99.90
21282;DHT22;10800;53.096;18.328;2024-02-15T13:22:51;10.60;99.90
21282;DHT22;10800;53.096;18.328;2024-02-15T13:27:57;10.70;99.90
21282;DHT22;10800;53.096;18.328;2024-02-15T13:33:03;10.70;99.90
21282;DHT22;10800;53.096;18.328;2024-02-15T13:38:11;10.70;99.90
21282;DHT22;10800;53.096;18.328;2024-02-15T13:43:18;10.70;99.90
21282;DHT22;10800;53.096;18.328;2024-02-15T13:48:24;10.70;99.90
21282;DHT22;10800;53.096;18.328;2024-02-15T13:53:30;10.60;99.90
21282;DHT22;10800;53.096;18.328;2024-02-15T13:58:36;10.60;99.90
21282;DHT22;10800;53.096;18.328;2024-02-15T14:03:41;10.60;99.90
21282;DHT22;10800;53.096;18.328;2024-02-15T14:08:48;10.50;99.90
21282;DHT22;10800;53.096;18.328;2024-02-15T14:13:53;10.50;99.90
21282;DHT22;10800;53.096;18.328;2024-02-15T14:19:00;10.60;99.90
21282;DHT22;10800;53.096;18.328;2024-02-15T14:24:08;10.50;99.90
21282;DHT22;10800;53.096;18.328;2024-02-15T14:29:13;10.50;99.90
21282;DHT22;10800;53.096;18.328;2024-02-15T14:34:18;10.50;99.90
21282;DHT22;10800;53.096;18.328;2024-02-15T14:39:25;10.50;99.90
21282;DHT22;10800;53.096;18.328;2024-02-15T14:44:30;10.50;99.90
21282;DHT22;10800;53.096;18.328;2024-02-15T14:49:36;10.50;99.90
21282;DHT22;10800;53.096;18.328;2024-02-15T14:54:41;10.40;99.90
21282;DHT22;10800;53.096;18.328;2024-02-15T14:59:47;10.40;99.90
21282;DHT22;10800;53.096;18.328;2024-02-15T15:04:52;10.40;99.90
21282;DHT22;10800;53.096;18.328;2024-02-15T15:10:15;10.40;99.90
21282;DHT22;10800;53.096;18.328;2024-02-15T15:15:39;10.40;99.90
21282;DHT22;10800;53.096;18.328;2024-02-15T15:20:45;10.40;99.90
21282;DHT22;10800;53.096;18.328;2024-02-15T15:25:51;10.40;99.90
21282;DHT22;10800;53.096;18.328;2024-02-15T15:30:58;10.30;99.90
21282;DHT22;10800;53.096;18.328;2024-02-15T15:36:04;10.30;99.90
21282;DHT22;10800;53.096;18.328;2024-02-15T15:41:10;10.30;99.90
21282;DHT22;10800;53.096;18.328;2024-02-15T15:46:16;10.20;99.90
21282;DHT22;10800;53.096;18.328;2024-02-15T15:51:21;10.20;99.90
21282;DHT22;10800;53.096;18.328;2024-02-15T15:56:27;10.20;99.90
21282;DHT22;10800;53.096;18.328;2024-02-15T16:01:32;10.20;99.90
21282;DHT22;10800;53.096;18.328;2024-02-15T16:06:40;10.20;99.90
21282;DHT22;10800;53.096;18.328;2024-02-15T16:11:46;10.20;99.90
21282;DHT22;10800;53.096;18.328;2024-02-15T16:16:53;10.20;99.90
21282;DHT22;10800;53.096;18.328;2024-02-15T16:21:58;10.20;99.90
21282;DHT22;10800;53.096;18.328;2024-02-15T16:27:04;10.20;99.90
21282;DHT22;10800;53.096;18.328;2024-02-15T16:32:10;10.20;99.90
21282;DHT22;10800;53.096;18.328;2024-02-15T16:37:16;10.20;99.90
21282;DHT22;10800;53.096;18.328;2024-02-15T16:42:23;10.10;99.90
21282;DHT22;10800;53.096;18.328;2024-02-15T16:47:28;10.10;99.90
21282;DHT22;10800;53.096;18.328;2024-02-15T16:52:35;10.10;99.90
21282;DHT22;10800;53.096;18.328;2024-02-15T16:57:42;10.10;99.90
21282;DHT22;10800;53.096;18.328;2024-02-15T17:02:49;10.00;99.90
21282;DHT22;10800;53.096;18.328;2024-02-15T17:07:55;10.00;99.90
21282;DHT22;10800;53.096;18.328;2024-02-15T17:13:05;10.00;99.90
21282;DHT22;10800;53.096;18.328;2024-02-15T17:18:10;10.00;99.90
21282;DHT22;10800;53.096;18.328;2024-02-15T17:23:17;10.00;99.90
21282;DHT22;10800;53.096;18.328;2024-02-15T17:28:25;10.00;99.90
21282;DHT22;10800;53.096;18.328;2024-02-15T17:33:30;9.90;99.90
21282;DHT22;10800;53.096;18.328;2024-02-15T17:38:37;9.90;99.90
21282;DHT22;10800;53.096;18.328;2024-02-15T17:43:44;10.00;99.90
21282;DHT22;10800;53.096;18.328;2024-02-15T17:48:49;9.90;99.90
21282;DHT22;10800;53.096;18.328;2024-02-15T17:53:55;9.90;99.90
21282;DHT22;10800;53.096;18.328;2024-02-15T17:59:02;9.80;99.90
21282;DHT22;10800;53.096;18.328;2024-02-15T18:04:07;9.90;99.90
21282;DHT22;10800;53.096;18.328;2024-02-15T18:09:13;9.80;99.90
21282;DHT22;10800;53.096;18.328;2024-02-15T18:14:18;9.80;99.90
21282;DHT22;10800;53.096;18.328;2024-02-15T18:19:25;9.80;99.90
21282;DHT22;10800;53.096;18.328;2024-02-15T18:24:35;9.80;99.90
21282;DHT22;10800;53.096;18.328;2024-02-15T18:29:40;9.80;99.90
21282;DHT22;10800;53.096;18.328;2024-02-15T18:34:47;9.80;99.90
21282;DHT22;10800;53.096;18.328;2024-02-15T18:39:53;9.80;99.90
21282;DHT22;10800;53.096;18.328;2024-02-15T18:44:58;9.80;99.90
21282;DHT22;10800;53.096;18.328;2024-02-15T18:50:05;9.80;99.90
21282;DHT22;10800;53.096;18.328;2024-02-15T18:55:13;9.80;99.90
21282;DHT22;10800;53.096;18.328;2024-02-15T19:00:18;9.70;99.90
21282;DHT22;10800;53.096;18.328;2024-02-15T19:05:27;9.70;99.90
21282;DHT22;10800;53.096;18.328;2024-02-15T19:10:34;9.70;99.90
21282;DHT22;10800;53.096;18.328;2024-02-15T19:15:39;9.70;99.90
21282;DHT22;10800;53.096;18.328;2024-02-15T19:20:45;9.70;99.90
21282;DHT22;10800;53.096;18.328;2024-02-15T19:25:50;9.70;99.90
21282;DHT22;10800;53.096;18.328;2024-02-15T19:30:56;9.70;99.90
21282;DHT22;10800;53.096;18.328;2024-02-15T19:36:03;9.70;99.90
21282;DHT22;10800;53.096;18.328;2024-02-15T19:41:09;9.70;99.90
21282;DHT22;10800;53.096;18.328;2024-02-15T19:46:15;9.70;99.90
21282;DHT22;10800;53.096;18.328;2024-02-15T19:51:21;9.70;99.90
21282;DHT22;10800;53.096;18.328;2024-02-15T19:56:28;9.70;99.90
21282;DHT22;10800;53.096;18.328;2024-02-15T20:01:36;9.70;99.90
21282;DHT22;10800;53.096;18.328;2024-02-15T20:06:43;9.70;99.90
21282;DHT22;10800;53.096;18.328;2024-02-15T20:11:49;9.70;99.90
21282;DHT22;10800;53.096;18.328;2024-02-15T20:16:54;9.70;99.90
21282;DHT22;10800;53.096;18.328;2024-02-15T20:22:00;9.70;99.90
21282;DHT22;10800;53.096;18.328;2024-02-15T20:27:06;9.70;99.90
21282;DHT22;10800;53.096;18.328;2024-02-15T20:32:13;9.70;99.90
21282;DHT22;10800;53.096;18.328;2024-02-15T20:37:20;9.70;99.90
21282;DHT22;10800;53.096;18.328;2024-02-15T20:42:27;9.70;99.90
21282;DHT22;10800;53.096;18.328;2024-02-15T20:47:33;9.70;99.90
21282;DHT22;10800;53.096;18.328;2024-02-15T20:52:40;9.70;99.90
21282;DHT22;10800;53.096;18.328;2024-02-15T20:57:47;9.80;99.90
21282;DHT22;10800;53.096;18.328;2024-02-15T21:02:53;9.70;99.90
21282;DHT22;10800;53.096;18.328;2024-02-15T21:07:58;9.70;99.90
21282;DHT22;10800;53.096;18.328;2024-02-15T21:13:04;9.70;99.90
21282;DHT22;10800;53.096;18.328;2024-02-15T21:18:11;9.70;99.90
21282;DHT22;10800;53.096;18.328;2024-02-15T21:23:17;9.70;99.90
21282;DHT22;10800;53.096;18.328;2024-02-15T21:28:23;9.70;99.90
21282;DHT22;10800;53.096;18.328;2024-02-15T21:33:28;9.70;99.90
21282;DHT22;10800;53.096;18.328;2024-02-15T21:38:34;9.70;99.90
21282;DHT22;10800;53.096;18.328;2024-02-15T21:43:40;9.70;99.90
21282;DHT22;10800;53.096;18.328;2024-02-15T21:48:47;9.70;99.90
21282;DHT22;10800;53.096;18.328;2024-02-15T21:53:54;9.70;99.90
21282;DHT22;10800;53.096;18.328;2024-02-15T21:59:00;9.60;99.90
21282;DHT22;10800;53.096;18.328;2024-02-15T22:16:40;9.60;99.90
21282;DHT22;10800;53.096;18.328;2024-02-15T22:21:45;9.60;99.90
21282;DHT22;10800;53.096;18.328;2024-02-15T22:26:53;9.60;99.90
21282;DHT22;10800;53.096;18.328;2024-02-15T22:32:00;9.60;99.90
21282;DHT22;10800;53.096;18.328;2024-02-15T22:37:07;9.60;99.90
21282;DHT22;10800;53.096;18.328;2024-02-15T22:42:13;9.60;99.90
21282;DHT22;10800;53.096;18.328;2024-02-15T22:47:19;9.60;99.90
21282;DHT22;10800;53.096;18.328;2024-02-15T22:52:25;9.60;99.90
21282;DHT22;10800;53.096;18.328;2024-02-15T22:57:32;9.50;99.90
21282;DHT22;10800;53.096;18.328;2024-02-15T23:02:37;9.60;99.90
21282;DHT22;10800;53.096;18.328;2024-02-15T23:07:43;9.50;99.90
21282;DHT22;10800;53.096;18.328;2024-02-15T23:12:50;9.50;99.90
21282;DHT22;10800;53.096;18.328;2024-02-15T23:17:55;9.50;99.90
21282;DHT22;10800;53.096;18.328;2024-02-15T23:23:01;9.50;99.90
21282;DHT22;10800;53.096;18.328;2024-02-15T23:28:08;9.50;99.90
21282;DHT22;10800;53.096;18.328;2024-02-15T23:33:13;9.50;99.90
21282;DHT22;10800;53.096;18.328;2024-02-15T23:38:21;9.50;99.90
21282;DHT22;10800;53.096;18.328;2024-02-15T23:43:45;9.50;99.90
21282;DHT22;10800;53.096;18.328;2024-02-15T23:48:51;9.40;99.90
21282;DHT22;10800;53.096;18.328;2024-02-15T23:53:58;9.40;99.90
21282;DHT22;10800;53.096;18.328;2024-02-15T23:59:05;9.40;99.90
